createdAt,value
2023-03-13T00:01:40.079Z,60.60
2023-03-13T00:04:09.881Z,59.90
2023-03-13T00:06:40.573Z,60.40
2023-03-13T00:09:13.701Z,60.20
2023-03-13T00:11:42.362Z,61.00
2023-03-13T00:14:12.038Z,60.20
2023-03-13T00:16:40.975Z,60.10
2023-03-13T00:19:10.259Z,60.10
2023-03-13T00:21:41.126Z,60.50
2023-03-13T00:24:12.477Z,60.00
2023-03-13T00:26:41.005Z,60.20
2023-03-13T00:29:09.421Z,60.00
2023-03-13T00:31:37.835Z,60.00
2023-03-13T00:34:06.902Z,60.40
2023-03-13T00:36:37.420Z,59.90
2023-03-13T00:39:07.588Z,61.40
2023-03-13T00:41:39.085Z,60.40
2023-03-13T00:44:08.346Z,60.00
2023-03-13T00:46:37.510Z,60.00
2023-03-13T00:49:06.611Z,60.70
2023-03-13T00:51:35.696Z,60.30
2023-03-13T00:54:04.979Z,59.90
2023-03-13T00:56:34.625Z,60.50
2023-03-13T00:59:04.780Z,60.00
2023-03-13T01:01:35.517Z,60.00
2023-03-13T01:04:06.843Z,60.30
2023-03-13T01:06:38.189Z,60.10
2023-03-13T01:09:08.342Z,60.10
2023-03-13T01:11:40.367Z,60.00
2023-03-13T01:14:13.978Z,59.80
2023-03-13T01:16:42.795Z,59.70
2023-03-13T01:19:14.737Z,59.60
2023-03-13T01:21:45.302Z,59.60
2023-03-13T01:24:14.707Z,59.70
2023-03-13T01:26:45.488Z,59.40
2023-03-13T01:29:15.410Z,59.30
2023-03-13T01:31:43.850Z,59.40
2023-03-13T01:34:12.776Z,59.60
2023-03-13T01:36:41.156Z,59.60
2023-03-13T01:39:09.596Z,59.70
2023-03-13T01:41:39.507Z,59.80
2023-03-13T01:44:21.960Z,59.90
2023-03-13T01:46:50.673Z,59.90
2023-03-13T01:49:22.932Z,60.10
2023-03-13T01:52:12.465Z,60.10
2023-03-13T01:54:53.524Z,60.10
2023-03-13T01:57:27.523Z,60.00
2023-03-13T02:00:01.974Z,60.10
2023-03-13T02:02:32.315Z,60.00
2023-03-13T02:05:06.100Z,59.90
2023-03-13T02:07:40.894Z,59.80
2023-03-13T02:10:13.317Z,59.70
2023-03-13T02:12:44.340Z,59.50
2023-03-13T02:15:23.666Z,59.60
2023-03-13T02:17:55.074Z,59.30
2023-03-13T02:20:25.310Z,59.30
2023-03-13T02:23:02.523Z,59.20
2023-03-13T02:25:42.021Z,59.40
2023-03-13T02:28:15.316Z,59.40
2023-03-13T02:30:45.656Z,59.00
2023-03-13T02:33:15.995Z,59.40
2023-03-13T02:35:46.185Z,59.50
2023-03-13T02:38:21.578Z,59.90
2023-03-13T02:40:53.468Z,59.60
2023-03-13T02:43:29.000Z,59.60
2023-03-13T02:46:07.512Z,59.60
2023-03-13T02:48:41.419Z,59.60
2023-03-13T02:51:18.576Z,59.50
2023-03-13T02:53:48.887Z,59.50
2023-03-13T02:56:22.175Z,59.50
2023-03-13T02:58:51.012Z,59.50
2023-03-13T03:01:23.466Z,59.40
2023-03-13T03:03:52.174Z,59.50
2023-03-13T03:06:20.653Z,59.50
2023-03-13T03:08:49.646Z,59.50
2023-03-13T03:11:19.544Z,59.60
2023-03-13T03:13:52.802Z,59.50
2023-03-13T03:16:21.247Z,59.60
2023-03-13T03:18:49.556Z,59.60
2023-03-13T03:21:18.146Z,59.60
2023-03-13T03:23:46.500Z,59.60
2023-03-13T03:26:14.770Z,59.60
2023-03-13T03:28:44.586Z,59.70
2023-03-13T03:31:17.086Z,59.60
2023-03-13T03:33:46.324Z,59.70
2023-03-13T03:36:20.086Z,59.70
2023-03-13T03:38:49.569Z,59.70
2023-03-13T03:41:21.072Z,59.80
2023-03-13T03:43:51.025Z,59.80
2023-03-13T03:46:23.244Z,59.80
2023-03-13T03:48:51.734Z,59.80
2023-03-13T03:51:20.051Z,59.80
2023-03-13T03:53:49.262Z,59.80
2023-03-13T03:56:17.713Z,59.90
2023-03-13T03:58:52.536Z,59.90
2023-03-13T04:01:26.917Z,59.90
2023-03-13T04:03:55.398Z,59.90
2023-03-13T04:06:23.753Z,60.00
2023-03-13T04:08:52.081Z,60.00
2023-03-13T04:11:23.955Z,59.90
2023-03-13T04:13:56.868Z,59.90
2023-03-13T04:16:25.960Z,60.00
2023-03-13T04:18:55.819Z,60.00
2023-03-13T04:21:26.590Z,60.00
2023-03-13T04:24:24.157Z,60.00
2023-03-13T04:26:52.622Z,60.10
2023-03-13T04:29:23.458Z,60.10
2023-03-13T04:31:59.764Z,60.10
2023-03-13T04:34:37.190Z,60.40
2023-03-13T04:37:05.624Z,60.20
2023-03-13T04:39:51.154Z,60.50
2023-03-13T04:42:37.798Z,60.60
2023-03-13T04:45:17.971Z,60.90
2023-03-13T04:48:21.623Z,61.80
2023-03-13T04:51:22.030Z,61.20
2023-03-13T04:54:16.316Z,61.40
2023-03-13T04:56:53.736Z,61.60
2023-03-13T04:59:31.727Z,61.70
2023-03-13T05:02:20.867Z,61.80
2023-03-13T05:05:05.228Z,62.00
2023-03-13T05:07:52.124Z,62.10
2023-03-13T05:10:35.865Z,62.20
2023-03-13T05:13:24.399Z,62.30
2023-03-13T05:15:59.477Z,62.50
2023-03-13T05:18:49.487Z,62.60
2023-03-13T05:21:41.082Z,62.60
2023-03-13T05:24:41.461Z,62.70
2023-03-13T05:27:28.968Z,62.60
2023-03-13T05:30:15.691Z,62.50
2023-03-13T05:33:02.338Z,62.50
2023-03-13T05:35:48.481Z,62.40
2023-03-13T05:38:39.514Z,62.30
2023-03-13T05:41:15.208Z,62.20
2023-03-13T05:43:57.163Z,62.30
2023-03-13T05:46:48.341Z,62.20
2023-03-13T05:49:28.771Z,62.20
2023-03-13T05:52:21.147Z,62.00
2023-03-13T05:55:09.443Z,62.10
2023-03-13T05:58:04.799Z,62.00
2023-03-13T06:00:51.981Z,61.90
2023-03-13T06:03:44.916Z,62.00
2023-03-13T06:06:15.089Z,61.90
2023-03-13T06:08:53.524Z,62.00
2023-03-13T06:11:23.338Z,62.00
2023-03-13T06:13:53.268Z,62.00
2023-03-13T06:16:42.029Z,62.00
2023-03-13T06:19:16.422Z,62.10
2023-03-13T06:21:44.823Z,62.10
2023-03-13T06:24:14.491Z,62.00
2023-03-13T06:26:42.764Z,62.50
2023-03-13T06:29:11.686Z,62.10
2023-03-13T06:31:40.081Z,62.10
2023-03-13T06:34:09.215Z,62.10
2023-03-13T06:36:37.980Z,62.00
2023-03-13T06:39:06.623Z,62.10
2023-03-13T06:41:36.479Z,62.10
2023-03-13T06:44:05.120Z,62.30
2023-03-13T06:46:33.644Z,62.10
2023-03-13T06:49:04.674Z,62.00
2023-03-13T06:51:33.337Z,61.90
2023-03-13T06:54:03.815Z,61.70
2023-03-13T06:56:32.363Z,61.70
2023-03-13T06:59:02.097Z,61.60
2023-03-13T07:01:30.553Z,61.60
2023-03-13T07:03:58.976Z,61.50
2023-03-13T07:06:28.021Z,61.60
2023-03-13T07:08:56.342Z,61.60
2023-03-13T07:11:26.012Z,61.50
2023-03-13T07:14:10.085Z,61.60
2023-03-13T07:16:45.770Z,61.70
2023-03-13T07:19:15.322Z,61.70
2023-03-13T07:21:44.242Z,61.70
2023-03-13T07:24:12.790Z,61.80
2023-03-13T07:26:48.546Z,61.80
2023-03-13T07:29:22.773Z,61.90
2023-03-13T07:31:52.529Z,62.00
2023-03-13T07:34:20.850Z,62.10
2023-03-13T07:36:49.124Z,62.10
2023-03-13T07:39:17.513Z,62.10
2023-03-13T07:41:46.217Z,62.20
2023-03-13T07:44:18.373Z,62.20
2023-03-13T07:46:48.475Z,62.20
2023-03-13T07:49:18.163Z,62.30
2023-03-13T07:51:47.887Z,62.70
2023-03-13T07:54:16.186Z,62.50
2023-03-13T07:56:44.544Z,62.50
2023-03-13T07:59:13.052Z,62.50
2023-03-13T08:01:41.377Z,62.50
2023-03-13T08:04:13.873Z,62.40
2023-03-13T08:06:43.623Z,62.30
2023-03-13T08:09:12.251Z,62.20
2023-03-13T08:11:41.494Z,62.30
2023-03-13T08:14:10.092Z,62.30
2023-03-13T08:16:38.619Z,62.50
2023-03-13T08:19:07.117Z,62.20
2023-03-13T08:21:37.545Z,62.20
2023-03-13T08:24:10.696Z,62.30
2023-03-13T08:26:41.422Z,62.20
2023-03-13T08:29:12.828Z,62.00
2023-03-13T08:31:47.622Z,62.10
2023-03-13T08:34:17.883Z,61.90
2023-03-13T08:36:46.942Z,62.00
2023-03-13T08:39:18.622Z,61.90
2023-03-13T08:41:47.728Z,61.80
2023-03-13T08:44:20.083Z,61.90
2023-03-13T08:46:49.283Z,61.70
2023-03-13T08:49:18.364Z,61.60
2023-03-13T08:51:46.743Z,61.60
2023-03-13T08:54:16.500Z,61.50
2023-03-13T08:56:44.924Z,61.40
2023-03-13T08:59:15.497Z,61.40
2023-03-13T09:01:43.892Z,61.30
2023-03-13T09:04:12.304Z,61.20
2023-03-13T09:06:40.852Z,61.20
2023-03-13T09:09:10.580Z,61.20
2023-03-13T09:11:41.045Z,61.30
2023-03-13T09:14:11.473Z,61.30
2023-03-13T09:16:39.797Z,61.20
2023-03-13T09:19:08.229Z,61.20
2023-03-13T09:21:37.661Z,61.20
2023-03-13T09:24:06.675Z,61.20
2023-03-13T09:26:35.202Z,61.20
2023-03-13T09:29:05.091Z,61.30
2023-03-13T09:31:35.004Z,61.40
2023-03-13T09:34:04.078Z,61.40
2023-03-13T09:36:32.490Z,61.50
2023-03-13T09:39:01.926Z,61.50
2023-03-13T09:41:38.644Z,61.50
2023-03-13T09:44:17.340Z,61.60
2023-03-13T09:46:50.931Z,61.60
2023-03-13T09:49:31.633Z,61.70
2023-03-13T09:52:16.538Z,61.70
2023-03-13T09:54:50.857Z,61.80
2023-03-13T09:57:32.673Z,61.70
2023-03-13T10:00:11.354Z,61.80
2023-03-13T10:02:40.826Z,62.00
2023-03-13T10:05:18.578Z,61.90
2023-03-13T10:07:47.082Z,62.00
2023-03-13T10:10:19.210Z,62.10
2023-03-13T10:12:49.788Z,62.00
2023-03-13T10:15:39.016Z,62.00
2023-03-13T10:18:21.674Z,62.10
2023-03-13T10:20:53.379Z,62.00
2023-03-13T10:23:28.627Z,62.00
2023-03-13T10:25:56.924Z,62.00
2023-03-13T10:28:26.660Z,61.90
2023-03-13T10:31:04.221Z,61.90
2023-03-13T10:33:35.471Z,61.90
2023-03-13T10:36:10.205Z,61.80
2023-03-13T10:38:58.746Z,61.80
2023-03-13T10:41:30.962Z,61.60
2023-03-13T10:44:02.945Z,61.50
2023-03-13T10:46:34.889Z,61.40
2023-03-13T10:49:06.230Z,61.20
2023-03-13T10:51:39.713Z,61.20
2023-03-13T10:54:23.588Z,61.10
2023-03-13T10:56:54.291Z,61.10
2023-03-13T10:59:26.492Z,61.00
2023-03-13T11:02:03.197Z,61.80
2023-03-13T11:04:34.641Z,60.80
2023-03-13T11:07:06.751Z,61.00
2023-03-13T11:09:35.173Z,60.80
2023-03-13T11:12:08.387Z,60.70
2023-03-13T11:14:37.052Z,60.60
2023-03-13T11:17:24.910Z,60.50
2023-03-13T11:20:05.756Z,60.40
2023-03-13T11:22:49.595Z,60.40
2023-03-13T11:25:25.070Z,60.30
2023-03-13T11:28:22.496Z,60.10
2023-03-13T11:31:07.647Z,60.00
2023-03-13T11:33:53.286Z,60.00
2023-03-13T11:36:27.630Z,60.00
2023-03-13T11:39:20.628Z,59.80
2023-03-13T11:42:01.128Z,60.30
2023-03-13T11:44:43.998Z,59.80
2023-03-13T11:47:29.946Z,59.80
2023-03-13T11:50:15.724Z,59.80
2023-03-13T11:53:02.039Z,59.70
2023-03-13T11:55:45.611Z,59.80
2023-03-13T11:58:44.143Z,60.00
2023-03-13T12:01:18.934Z,59.80
2023-03-13T12:04:00.131Z,59.70
2023-03-13T12:06:35.531Z,59.90
2023-03-13T12:09:12.103Z,59.90
2023-03-13T12:11:47.479Z,59.80
2023-03-13T12:14:22.032Z,59.90
2023-03-13T12:16:55.590Z,59.90
2023-03-13T12:19:30.942Z,60.00
2023-03-13T12:22:14.000Z,60.00
2023-03-13T12:24:51.180Z,60.00
2023-03-13T12:27:23.667Z,60.00
2023-03-13T12:30:00.089Z,60.00
2023-03-13T12:32:36.232Z,60.40
2023-03-13T12:35:18.208Z,60.20
2023-03-13T12:37:54.910Z,59.90
2023-03-13T12:40:31.134Z,60.20
2023-03-13T12:43:05.874Z,59.40
2023-03-13T12:45:37.520Z,59.20
2023-03-13T12:48:43.389Z,59.20
2023-03-13T12:51:37.006Z,58.90
2023-03-13T12:54:34.320Z,58.90
2023-03-13T12:57:31.319Z,58.80
2023-03-13T13:00:05.720Z,58.90
2023-03-13T13:02:34.432Z,59.00
2023-03-13T13:05:04.120Z,58.60
2023-03-13T13:07:34.774Z,58.60
2023-03-13T13:10:25.313Z,58.70
2023-03-13T13:13:31.324Z,58.80
2023-03-13T13:16:10.336Z,58.70
2023-03-13T13:19:14.822Z,58.20
2023-03-13T13:55:51.880Z,58.10
2023-03-13T13:58:24.473Z,57.90
2023-03-13T14:00:56.909Z,57.70
2023-03-13T14:03:42.304Z,57.60
2023-03-13T14:06:21.086Z,57.40
2023-03-13T14:08:57.513Z,57.30
2023-03-13T14:11:34.794Z,57.00
2023-03-13T14:14:17.806Z,56.90
2023-03-13T14:16:49.657Z,56.40
2023-03-13T14:19:28.371Z,56.60
2023-03-13T14:22:02.349Z,56.60
2023-03-13T14:24:32.902Z,56.60
2023-03-13T14:27:02.217Z,56.60
2023-03-13T14:29:30.882Z,56.30
2023-03-13T14:32:01.109Z,56.70
2023-03-13T14:34:32.285Z,56.80
2023-03-13T14:37:17.726Z,56.90
2023-03-13T14:39:49.091Z,56.70
2023-03-13T14:42:20.218Z,56.70
2023-03-13T14:44:50.336Z,56.70
2023-03-13T14:47:26.949Z,56.70
2023-03-13T14:50:00.736Z,56.60
2023-03-13T14:52:30.863Z,56.70
2023-03-13T14:55:04.303Z,56.60
2023-03-13T14:57:34.273Z,56.60
2023-03-13T15:00:31.454Z,57.30
2023-03-13T15:03:22.473Z,56.60
2023-03-13T15:06:03.482Z,56.40
2023-03-13T15:08:32.262Z,56.60
2023-03-13T15:11:02.453Z,56.60
2023-03-13T15:13:37.468Z,56.60
2023-03-13T15:16:17.031Z,56.60
2023-03-13T15:18:45.436Z,56.50
2023-03-13T15:21:31.930Z,56.50
2023-03-13T15:24:03.587Z,56.40
2023-03-13T15:26:33.332Z,56.60
2023-03-13T15:29:01.619Z,56.70
2023-03-13T15:31:30.870Z,56.60
2023-03-13T15:34:01.212Z,56.70
2023-03-13T15:36:31.260Z,56.70
2023-03-13T15:38:59.684Z,56.70
2023-03-13T15:41:27.988Z,57.30
2023-03-13T15:43:57.880Z,56.70
2023-03-13T15:46:27.667Z,56.80
2023-03-13T15:48:56.154Z,56.90
2023-03-13T15:51:24.629Z,56.90
2023-03-13T15:53:53.687Z,57.10
2023-03-13T15:56:23.963Z,56.90
2023-03-13T15:58:52.726Z,57.00
2023-03-13T16:01:23.396Z,56.90
2023-03-13T16:03:51.957Z,56.90
2023-03-13T16:06:30.874Z,57.10
2023-03-13T16:09:00.160Z,57.10
2023-03-13T16:11:29.923Z,56.90
2023-03-13T16:13:58.593Z,56.90
2023-03-13T16:16:31.140Z,56.80
2023-03-13T16:19:00.445Z,56.70
2023-03-13T16:21:31.990Z,56.60
2023-03-13T16:24:00.410Z,56.50
2023-03-13T16:26:31.914Z,56.60
2023-03-13T16:29:00.691Z,56.50
2023-03-13T16:31:32.791Z,56.50
2023-03-13T16:34:02.382Z,56.60
2023-03-13T16:36:33.652Z,56.60
2023-03-13T16:39:08.530Z,56.60
2023-03-13T16:41:37.612Z,56.50
2023-03-13T16:44:06.917Z,56.50
2023-03-13T16:46:41.064Z,56.50
2023-03-13T16:49:15.182Z,56.60
2023-03-13T16:51:43.595Z,56.50
2023-03-13T16:54:12.621Z,56.50
2023-03-13T16:56:43.683Z,56.50
2023-03-13T16:59:14.643Z,56.50
2023-03-13T17:01:44.633Z,56.60
2023-03-13T17:04:13.532Z,56.60
2023-03-13T17:06:44.820Z,56.50
2023-03-13T17:09:17.472Z,56.60
2023-03-13T17:11:46.321Z,56.60
2023-03-13T17:14:14.805Z,56.50
2023-03-13T17:16:45.963Z,56.50
2023-03-13T17:19:15.715Z,56.50
2023-03-13T17:21:44.156Z,56.50
2023-03-13T17:24:12.760Z,56.50
2023-03-13T17:26:41.886Z,56.60
2023-03-13T17:29:18.838Z,56.50
2023-03-13T17:31:48.582Z,56.50
2023-03-13T17:34:17.367Z,56.70
2023-03-13T17:36:47.497Z,56.50
2023-03-13T17:39:16.259Z,56.60
2023-03-13T17:41:44.648Z,56.60
2023-03-13T17:44:13.060Z,56.80
2023-03-13T17:46:46.326Z,57.40
2023-03-13T17:49:20.441Z,56.80
2023-03-13T17:51:50.020Z,57.40
2023-03-13T17:54:19.176Z,56.80
2023-03-13T17:56:47.897Z,57.00
2023-03-13T17:59:18.697Z,56.90
2023-03-13T18:01:47.517Z,56.90
2023-03-13T18:04:17.311Z,57.00
2023-03-13T18:06:48.745Z,57.00
2023-03-13T18:09:19.461Z,57.10
2023-03-13T18:11:48.973Z,57.10
2023-03-13T18:14:17.513Z,57.10
2023-03-13T18:16:48.575Z,57.10
2023-03-13T18:19:22.496Z,57.40
2023-03-13T18:21:53.366Z,57.20
2023-03-13T18:24:22.459Z,57.40
2023-03-13T18:26:51.637Z,57.30
2023-03-13T18:29:26.509Z,57.30
2023-03-13T18:31:56.308Z,57.30
2023-03-13T18:34:26.871Z,57.60
2023-03-13T18:36:56.217Z,57.50
2023-03-13T18:39:24.804Z,57.50
2023-03-13T18:41:53.613Z,57.50
2023-03-13T18:44:23.003Z,57.50
2023-03-13T18:46:52.098Z,57.60
2023-03-13T18:49:25.035Z,57.60
2023-03-13T18:51:54.723Z,58.30
2023-03-13T18:54:23.166Z,57.80
2023-03-13T18:56:51.487Z,58.10
2023-03-13T18:59:22.207Z,57.80
2023-03-13T19:01:51.274Z,58.10
2023-03-13T19:04:20.717Z,58.10
2023-03-13T19:06:51.441Z,58.10
2023-03-13T19:12:12.445Z,58.50
2023-03-13T19:14:40.863Z,58.40
2023-03-13T19:17:19.260Z,59.00
2023-03-13T19:19:47.694Z,58.90
2023-03-13T19:22:17.314Z,59.20
2023-03-13T19:24:45.645Z,58.70
2023-03-13T19:27:17.053Z,58.60
2023-03-13T19:29:47.260Z,58.80
2023-03-13T19:32:17.248Z,58.80
2023-03-13T19:34:46.166Z,59.10
2023-03-13T19:37:18.980Z,58.90
2023-03-13T19:39:49.392Z,59.00
2023-03-13T19:42:42.888Z,58.80
2023-03-13T19:45:13.310Z,59.00
2023-03-13T19:47:42.023Z,59.20
2023-03-13T19:50:20.216Z,59.20
2023-03-13T19:52:50.463Z,59.30
2023-03-13T19:55:19.275Z,59.20
2023-03-13T19:57:47.753Z,59.20
2023-03-13T20:00:21.965Z,59.30
2023-03-13T20:02:52.149Z,59.30
2023-03-13T20:05:20.851Z,59.20
2023-03-13T20:07:53.454Z,59.20
2023-03-13T20:10:23.857Z,59.00
2023-03-13T20:12:53.772Z,59.10
2023-03-13T20:15:22.694Z,59.00
2023-03-13T20:17:51.668Z,59.20
2023-03-13T20:20:20.704Z,59.20
2023-03-13T20:22:50.769Z,59.30
2023-03-13T20:25:19.287Z,59.30
2023-03-13T20:27:47.848Z,59.90
2023-03-13T20:30:16.676Z,59.30
2023-03-13T20:32:58.536Z,59.40
2023-03-13T20:35:29.240Z,59.40
2023-03-13T20:38:00.942Z,59.50
2023-03-13T20:40:29.724Z,59.50
2023-03-13T20:42:59.467Z,59.40
2023-03-13T20:45:28.794Z,59.50
2023-03-13T20:47:57.682Z,59.60
2023-03-13T20:50:26.309Z,59.60
2023-03-13T20:52:55.855Z,59.60
2023-03-13T20:55:25.952Z,59.70
2023-03-13T20:57:54.537Z,59.70
2023-03-13T21:00:23.831Z,59.70
2023-03-13T21:02:54.348Z,59.80
2023-03-13T21:05:23.014Z,59.70
2023-03-13T21:07:51.574Z,59.80
2023-03-13T21:10:20.598Z,59.70
2023-03-13T21:12:50.595Z,59.70
2023-03-13T21:15:19.170Z,59.80
2023-03-13T21:17:47.671Z,59.80
2023-03-13T21:20:16.386Z,59.80
2023-03-13T21:22:44.978Z,59.80
2023-03-13T21:25:13.959Z,59.90
2023-03-13T21:27:43.941Z,60.00
2023-03-13T21:30:18.628Z,59.70
2023-03-13T21:32:48.131Z,59.90
2023-03-13T21:35:17.732Z,60.00
2023-03-13T21:37:46.689Z,60.00
2023-03-13T21:40:15.621Z,60.00
2023-03-13T21:42:44.032Z,60.10
2023-03-13T21:45:14.259Z,60.10
2023-03-13T21:47:42.651Z,60.00
2023-03-13T21:50:13.419Z,60.00
2023-03-13T21:52:42.444Z,60.10
2023-03-13T21:55:13.751Z,60.10
2023-03-13T21:57:42.187Z,60.40
2023-03-13T22:00:14.384Z,60.20
2023-03-13T22:02:43.271Z,60.40
2023-03-13T22:05:11.779Z,60.30
2023-03-13T22:07:40.141Z,60.40
2023-03-13T22:10:09.662Z,60.40
2023-03-13T22:12:38.166Z,60.60
2023-03-13T22:15:08.354Z,60.60
2023-03-13T22:17:38.036Z,60.60
2023-03-13T22:20:08.761Z,60.60
2023-03-13T22:22:37.127Z,61.40
2023-03-13T22:25:06.331Z,60.60
2023-03-13T22:27:35.087Z,60.80
2023-03-13T22:30:03.524Z,60.80
2023-03-13T22:32:31.925Z,60.90
2023-03-13T22:35:01.811Z,60.90
2023-03-13T22:37:30.230Z,61.00
2023-03-13T22:39:58.552Z,61.10
2023-03-13T22:42:27.086Z,61.20
2023-03-13T22:44:55.805Z,61.50
2023-03-13T22:47:25.871Z,61.40
2023-03-13T22:49:54.940Z,61.60
2023-03-13T22:52:29.093Z,61.60
2023-03-13T22:54:58.136Z,61.70
2023-03-13T22:57:29.074Z,61.60
2023-03-13T22:59:59.210Z,61.50
2023-03-13T23:02:28.798Z,61.50
2023-03-13T23:04:58.721Z,61.50
2023-03-13T23:07:30.985Z,61.50
2023-03-13T23:10:00.567Z,61.70
2023-03-13T23:12:30.973Z,61.60
2023-03-13T23:15:02.189Z,61.50
2023-03-13T23:17:35.855Z,61.50
2023-03-13T23:20:10.702Z,61.50
2023-03-13T23:22:41.770Z,61.50
2023-03-13T23:25:12.128Z,61.60
2023-03-13T23:27:40.896Z,61.40
2023-03-13T23:30:13.080Z,61.40
2023-03-13T23:32:44.442Z,61.50
2023-03-13T23:35:14.404Z,61.50
2023-03-13T23:37:44.840Z,61.50
2023-03-13T23:40:14.082Z,61.50
2023-03-13T23:42:46.474Z,61.20
2023-03-13T23:45:15.320Z,61.30
2023-03-13T23:47:44.833Z,61.00
2023-03-13T23:50:15.023Z,61.30
2023-03-13T23:52:45.126Z,61.20
2023-03-13T23:55:13.876Z,61.30
2023-03-13T23:57:42.476Z,61.20
